Thursday, November 23, 2017, 6:13 PM GMT
Back to Local

CYHU, Saint Hubert Airport

Location: , , Canada Lat: 45.517
Local Time: 6:13 PM GMT (18:13 GMT) Lon: -73.417
Time Zone: GMT Elev: 88 ft

Show me the last for .
Show Decoded

2017-11-23 18:00 METAR CYHU 231800Z AUTO 23012KT 9SM FEW021 OVC170 M02/M08 A3000 RMK SLP163 =
2017-11-23 17:00 METAR CYHU 231700Z AUTO 23012KT 9SM FEW110 SCT140 M04/M09 A3002 RMK SLP169 =
2017-11-23 16:00 METAR CYHU 231600Z AUTO 23013KT 9SM FEW110 M04/M10 A3006 RMK SLP183 =
2017-11-23 15:00 METAR CYHU 231500Z AUTO 26011KT 9SM BKN150 M04/M11 A3010 RMK SLP194 =
2017-11-23 14:00 METAR CYHU 231400Z AUTO 25009KT 9SM CLR M05/M10 A3012 RMK SLP202 =
2017-11-23 13:00 METAR CYHU 231300Z AUTO 29008KT 9SM CLR M07/M11 A3012 RMK SLP203 =
2017-11-23 12:00 METAR CYHU 231200Z AUTO 28006KT 9SM CLR M07/M12 A3013 RMK SLP206 =
2017-11-23 11:00 METAR CYHU 231100Z AUTO 27005KT 9SM OVC025 M06/M11 A3012 RMK SLP201 =
2017-11-23 10:00 METAR CYHU 231000Z AUTO 30008KT 9SM OVC027 M06/M11 A3011 RMK SLP199 =
2017-11-23 09:00 METAR CYHU 230900Z AUTO 33008KT 9SM OVC027 M06/M11 A3010 RMK SLP196 =
2017-11-23 08:00 METAR CYHU 230800Z AUTO 28006KT 9SM OVC027 M05/M11 A3010 RMK SLP197 =
2017-11-23 07:08 METAR CYHU 230708Z AUTO 30009KT 290V360 9SM OVC025 M05/M11 A3010 RMK SLP196 =
2017-11-23 07:00 METAR CYHU 230700Z AUTO 34006KT 9SM -SN OVC025 M05/M10 A3010 RMK SLP196 =
2017-11-23 06:05 METAR CYHU 230605Z AUTO 34008KT 9SM -SN OVC025 M05/M10 A3010 RMK SLP194 =
2017-11-23 06:03 METAR CYHU 230603Z AUTO 33010KT 9SM OVC025 M05/M10 A3010 RMK SLP194 =
2017-11-23 06:00 METAR CYHU 230600Z AUTO 34009KT 9SM -SN OVC025 M05/M10 A3010 RMK SLP194 =
2017-11-23 05:41 METAR CYHU 230541Z AUTO 32008KT 9SM -SN OVC025 M05/M09 A3010 RMK SLP195 =
2017-11-23 05:37 METAR CYHU 230537Z AUTO 34009KT 9SM OVC025 M05/M09 A3010 RMK SLP195 =
2017-11-23 05:17 METAR CYHU 230517Z AUTO 34009KT 9SM OVC023 M05/M09 A3010 RMK SLP197 =
2017-11-23 05:07 METAR CYHU 230507Z AUTO 34007KT 9SM -SN OVC023 M04/M09 A3010 RMK SLP196 =
2017-11-23 05:00 METAR CYHU 230500Z AUTO 33008KT 9SM OVC023 M04/M09 A3010 RMK SLP195 =
2017-11-23 04:40 METAR CYHU 230440Z AUTO 34008KT 9SM -SN OVC023 M04/M09 A3010 RMK SLP195 =
2017-11-23 04:00 METAR CYHU 230400Z AUTO 34008KT 9SM OVC023 M04/M08 A3009 RMK SLP193 =
2017-11-23 03:30 METAR CYHU 230330Z AUTO 33010KT 9SM OVC023 M04/M08 A3009 RMK SLP191 =
2017-11-23 03:00 METAR CYHU 230300Z AUTO 34011KT 9SM OVC025 M03/M07 A3009 RMK SLP191 =
2017-11-23 02:00 METAR CYHU 230200Z AUTO 34011KT 9SM OVC025 M02/M06 A3007 RMK SLP186 =
2017-11-23 01:47 METAR CYHU 230147Z AUTO 32011KT 9SM OVC025 M02/M07 A3007 RMK SLP186 =
2017-11-23 01:00 METAR CYHU 230100Z AUTO 29009KT 9SM OVC023 M01/M05 A3006 RMK SLP183 =
2017-11-23 00:00 METAR CYHU 230000Z AUTO 29010KT 9SM OVC023 M00/M04 A3005 RMK SLP178 =
2017-11-22 23:00 METAR CYHU 222300Z AUTO 30010G16KT 9SM OVC023 01/M04 A3003 RMK SLP172 =
2017-11-22 22:43 METAR CYHU 222243Z AUTO 31010G15KT 9SM BKN023 OVC055 01/M03 A3002 RMK SLP169 =
2017-11-22 22:00 METAR CYHU 222200Z AUTO 30010G15KT 9SM FEW027 BKN044 OVC055 01/M02 A3000 RMK
                 SLP163 =
2017-11-22 21:52 METAR CYHU 222152Z AUTO 30010KT 9SM FEW031 BKN044 OVC050 01/M02 A3000 RMK SLP162
                 =
2017-11-22 21:42 METAR CYHU 222142Z AUTO 30009KT 6SM -RA FEW026 BKN031 OVC040 01/M02 A3000 RMK
                 SLP161 =
2017-11-22 21:17 METAR CYHU 222117Z AUTO 29012KT 5SM -RA BR SCT015 OVC026 01/M01 A3000 RMK SLP161
                 =
2017-11-22 21:00 METAR CYHU 222100Z AUTO 30012KT 4SM -RA BR SCT015 BKN021 OVC055 01/M01 A2999 RMK
                 SLP159 =
2017-11-22 20:59 METAR CYHU 222059Z AUTO 30013KT 5SM -RA BKN018 BKN023 OVC055 02/M01 A2999 RMK
                 SLP159 =
2017-11-22 20:57 METAR CYHU 222057Z AUTO 30012KT 8SM -RA BKN018 BKN026 OVC055 02/M01 A2999 RMK
                 SLP159 =
2017-11-22 20:46 METAR CYHU 222046Z AUTO 28011KT 9SM BKN020 BKN039 OVC055 02/M01 A2999 RMK SLP157
                 =
2017-11-22 20:25 METAR CYHU 222025Z AUTO 28008G15KT 9SM SCT024 OVC055 02/M01 A2998 RMK SLP154 =
2017-11-22 20:06 METAR CYHU 222006Z AUTO 28012KT 9SM SCT018 BKN024 OVC055 03/M01 A2997 RMK PRESRR
                 SLP152 =
2017-11-22 20:03 METAR CYHU 222003Z AUTO 28010G15KT 9SM SCT018 OVC055 03/M01 A2997 RMK SLP151 =
2017-11-22 20:00 METAR CYHU 222000Z AUTO 27012G17KT 9SM BKN018 OVC055 03/M01 A2997 RMK SLP151 =
2017-11-22 19:51 METAR CYHU 221951Z AUTO 28012G17KT 9SM BKN018 OVC055 03/M01 A2996 RMK SLP148 =
2017-11-22 19:00 METAR CYHU 221900Z AUTO 27010KT 9SM SCT016 OVC060 03/00 A2995 RMK SLP143 =

Support USWX by starting your Amazon purchase here.